To NAV CANADA Home Page Login to a new session Search on AWWS site Feedback and Comments Disclaimer Vers la page française équivalente Tips FAQ What's new on the site To the Forecasts and Observations / NOTAM section To "File a Flight Plan" website Publications and other links Update of the User's profile FIC Telephone Numbers My Weather Data Folder Route Weather Data Regional Weather Data Local Weather Data To the Forecasts and Observations / NOTAM section
Request Generated 02/24/2017 at 03:36:32 UTC . Weather information available at that time is displayed.

METAR/TAF

FORT ST. JOHN/BC    

METAR CYXJ 240300Z 35012KT 15SM BKN027 BKN068 M07/M11 A3013 RMK
SC6AC1 /S01/ SLP255=
SPECI CYXJ 240246Z 34011KT 15SM SCT020 BKN070 M07/M11 A3013 RMK
SC4AC3 SLP254=
SPECI CYXJ 240206Z 33010KT 5SM -SN OVC022 M07/M09 A3012 RMK SC8
SLP250=
METAR CYXJ 240200Z 34008KT 2 1/2SM -SN OVC019 M07/M09 A3012 RMK SC8
SLP250=
SPECI CYXJ 240144Z 35013KT 2SM -SN OVC015 M07/M09 A3011 RMK SC8
SLP246=
SPECI CYXJ 240141Z 34010KT 3SM -SN OVC014 M07/M09 A3011 RMK SC8
SLP246=
METAR CYXJ 240100Z 35010KT 15SM -SN SCT030 OVC070 M06/M10 A3009 RMK
SC3AC5 SLP238=

TAF AMD CYXJ 240155Z 2401/2413 35012KT P6SM SCT015 BKN050 OVC090
TEMPO 2401/2406 2SM -SN OVC015
FM240600 35014KT P6SM SCT020 BKN040 TEMPO 2406/2413 6SM -SN
OVC020
RMK NXT FCST BY 240700Z=
Your time UTC time
Weather data provided by Environment Canada and NAV CANADA